createdAt,value
2018-06-14T00:00:09.034Z,15.85
2018-06-14T00:01:16.171Z,15.84
2018-06-14T00:02:23.262Z,15.82
2018-06-14T00:03:30.151Z,15.81
2018-06-14T00:04:37.159Z,15.80
2018-06-14T00:05:44.228Z,15.79
2018-06-14T00:06:51.223Z,15.80
2018-06-14T00:07:58.220Z,15.77
2018-06-14T00:09:05.093Z,15.77
2018-06-14T00:10:12.131Z,15.77
2018-06-14T00:11:19.256Z,15.76
2018-06-14T00:12:26.312Z,15.75
2018-06-14T00:13:33.291Z,15.73
2018-06-14T00:14:40.326Z,15.72
2018-06-14T00:15:47.287Z,15.72
2018-06-14T00:16:54.232Z,15.71
2018-06-14T00:18:01.304Z,15.70
2018-06-14T00:19:08.251Z,15.68
2018-06-14T00:20:15.254Z,15.68
2018-06-14T00:21:22.278Z,15.68
2018-06-14T00:22:29.210Z,15.67
2018-06-14T00:23:36.193Z,15.66
2018-06-14T00:24:43.203Z,15.65
2018-06-14T00:25:50.058Z,15.64
2018-06-14T00:26:56.871Z,15.62
2018-06-14T00:28:03.858Z,15.61
2018-06-14T00:29:10.930Z,15.62
2018-06-14T00:30:17.907Z,15.60
2018-06-14T00:31:24.959Z,15.59
2018-06-14T00:32:31.941Z,15.58
2018-06-14T00:33:38.985Z,15.59
2018-06-14T00:34:46.043Z,15.56
2018-06-14T00:35:52.925Z,15.55
2018-06-14T00:36:59.893Z,15.55
2018-06-14T00:38:06.966Z,15.53
2018-06-14T00:39:13.943Z,15.53
2018-06-14T00:40:20.919Z,15.53
2018-06-14T00:41:27.783Z,15.51
2018-06-14T00:42:34.805Z,15.52
2018-06-14T00:43:41.752Z,15.49
2018-06-14T00:44:48.719Z,15.49
2018-06-14T00:45:55.655Z,15.48
2018-06-14T00:47:02.872Z,15.48
2018-06-14T00:48:09.819Z,15.47
2018-06-14T00:49:16.880Z,15.47
2018-06-14T00:50:23.923Z,15.45
2018-06-14T00:51:30.927Z,15.44
2018-06-14T00:52:37.786Z,15.43
2018-06-14T00:53:44.788Z,15.41
2018-06-14T00:54:51.832Z,15.41
2018-06-14T00:55:58.867Z,15.39
2018-06-14T00:57:06.011Z,15.37
2018-06-14T00:58:12.853Z,15.37
2018-06-14T00:59:19.863Z,15.37
2018-06-14T01:00:26.949Z,15.35
2018-06-14T01:01:33.972Z,15.34
2018-06-14T01:02:40.887Z,15.36
2018-06-14T01:03:47.834Z,15.32
2018-06-14T01:04:54.793Z,15.33
2018-06-14T01:06:01.782Z,15.31
2018-06-14T01:07:08.810Z,15.31
2018-06-14T01:08:15.588Z,15.30
2018-06-14T01:09:22.492Z,15.28
2018-06-14T01:10:29.514Z,15.30
2018-06-14T01:11:36.506Z,15.28
2018-06-14T01:12:43.180Z,15.27
2018-06-14T01:13:50.252Z,15.26
2018-06-14T01:14:57.107Z,15.23
2018-06-14T01:16:04.078Z,15.22
2018-06-14T01:17:11.350Z,15.23
2018-06-14T01:18:17.717Z,15.21
2018-06-14T01:19:24.489Z,15.21
2018-06-14T01:20:31.358Z,15.20
2018-06-14T01:21:38.543Z,15.19
2018-06-14T01:22:45.530Z,15.18
2018-06-14T01:23:52.462Z,15.17
2018-06-14T01:24:59.402Z,15.17
2018-06-14T01:26:06.400Z,15.15
2018-06-14T01:27:13.376Z,15.16
2018-06-14T01:28:20.369Z,15.14
2018-06-14T01:29:27.189Z,15.14
2018-06-14T01:30:34.166Z,15.12
2018-06-14T01:31:41.002Z,15.12
2018-06-14T01:32:47.871Z,15.11
2018-06-14T01:33:54.894Z,15.09
2018-06-14T01:35:01.894Z,15.08
2018-06-14T01:36:08.935Z,15.08
2018-06-14T01:37:16.312Z,15.06
2018-06-14T01:38:23.074Z,15.05
2018-06-14T01:39:30.018Z,15.06
2018-06-14T01:40:37.003Z,15.04
2018-06-14T01:41:43.983Z,15.03
2018-06-14T01:42:51.053Z,15.02
2018-06-14T01:43:58.004Z,15.00
2018-06-14T01:45:04.791Z,15.00
2018-06-14T01:46:11.647Z,15.00
2018-06-14T01:47:18.641Z,15.00
2018-06-14T01:48:25.693Z,14.98
2018-06-14T01:49:32.604Z,14.98
2018-06-14T01:50:39.619Z,14.96
2018-06-14T01:51:46.525Z,14.96
2018-06-14T01:52:53.406Z,14.94
2018-06-14T01:54:00.354Z,14.94
2018-06-14T01:55:07.403Z,14.93
2018-06-14T01:56:14.443Z,14.93
2018-06-14T01:57:21.361Z,14.92
2018-06-14T01:58:28.384Z,14.92
2018-06-14T01:59:35.219Z,14.90
2018-06-14T02:00:42.114Z,14.89
2018-06-14T02:01:48.910Z,14.88
2018-06-14T02:02:56.075Z,14.87
2018-06-14T02:04:03.057Z,14.86
2018-06-14T02:05:10.115Z,14.86
2018-06-14T02:06:16.991Z,14.82
2018-06-14T02:07:23.918Z,14.83
2018-06-14T02:08:30.720Z,14.82
2018-06-14T02:09:37.647Z,14.81
2018-06-14T02:10:44.558Z,14.81
2018-06-14T02:11:51.498Z,14.80
2018-06-14T02:12:58.508Z,14.79
2018-06-14T02:14:05.703Z,14.78
2018-06-14T02:15:12.121Z,14.77
2018-06-14T02:16:19.126Z,14.76
2018-06-14T02:17:26.034Z,14.75
2018-06-14T02:18:32.963Z,14.73
2018-06-14T02:19:39.692Z,14.74
2018-06-14T02:20:46.472Z,14.72
2018-06-14T02:21:53.626Z,14.70
2018-06-14T02:23:00.567Z,14.70
2018-06-14T02:24:07.731Z,14.68
2018-06-14T02:25:14.679Z,14.68
2018-06-14T02:26:21.695Z,14.68
2018-06-14T02:27:28.581Z,14.67
2018-06-14T02:28:35.678Z,14.67
2018-06-14T02:29:42.774Z,14.67
2018-06-14T02:30:49.737Z,14.64
2018-06-14T02:31:56.590Z,14.62
2018-06-14T02:33:03.607Z,14.63
2018-06-14T02:34:10.598Z,14.61
2018-06-14T02:35:17.641Z,14.61
2018-06-14T02:36:24.691Z,14.60
2018-06-14T02:37:31.684Z,14.59
2018-06-14T02:38:38.643Z,14.58
2018-06-14T02:39:45.668Z,14.57
2018-06-14T02:40:52.571Z,14.55
2018-06-14T02:41:59.266Z,14.55
2018-06-14T02:43:06.153Z,14.54
2018-06-14T02:44:13.040Z,14.54
2018-06-14T02:45:19.999Z,14.53
2018-06-14T02:46:27.072Z,14.52
2018-06-14T02:47:34.111Z,14.50
2018-06-14T02:48:41.066Z,14.49
2018-06-14T02:49:48.083Z,14.49
2018-06-14T02:50:55.011Z,14.47
2018-06-14T02:52:01.887Z,14.48
2018-06-14T02:53:08.978Z,14.46
2018-06-14T02:54:15.878Z,14.46
2018-06-14T02:55:22.835Z,14.45
2018-06-14T02:56:29.837Z,14.42
2018-06-14T02:57:36.829Z,14.40
2018-06-14T02:58:43.798Z,14.40
2018-06-14T02:59:50.729Z,14.40
2018-06-14T03:00:57.697Z,14.39
2018-06-14T03:02:04.479Z,14.37
2018-06-14T03:03:11.370Z,14.37
2018-06-14T03:04:18.342Z,14.37
2018-06-14T03:05:25.125Z,14.35
2018-06-14T03:06:32.046Z,14.35
2018-06-14T03:07:39.140Z,14.33
2018-06-14T03:08:46.082Z,14.33
2018-06-14T03:09:53.197Z,14.32
2018-06-14T03:11:00.157Z,14.31
2018-06-14T03:12:07.027Z,14.30
2018-06-14T03:13:13.973Z,14.28
2018-06-14T03:14:20.968Z,14.26
2018-06-14T03:15:27.976Z,14.26
2018-06-14T03:16:34.825Z,14.25
2018-06-14T03:17:41.946Z,14.24
2018-06-14T03:18:48.491Z,14.23
2018-06-14T03:19:55.543Z,14.21
2018-06-14T03:21:02.384Z,14.21
2018-06-14T03:22:09.698Z,14.20
2018-06-14T03:23:16.799Z,14.19
2018-06-14T03:24:23.727Z,14.19
2018-06-14T03:25:30.706Z,14.19
2018-06-14T03:26:37.683Z,14.17
2018-06-14T03:27:44.623Z,14.15
2018-06-14T03:28:51.626Z,14.15
2018-06-14T03:29:58.569Z,14.16
2018-06-14T03:31:05.666Z,14.13
2018-06-14T03:32:12.762Z,14.12
2018-06-14T03:33:19.840Z,14.11
2018-06-14T03:34:26.868Z,14.10
2018-06-14T03:35:33.889Z,14.09
2018-06-14T03:36:40.872Z,14.08
2018-06-14T03:37:47.907Z,14.07
2018-06-14T03:38:54.954Z,14.06
2018-06-14T03:40:02.059Z,14.05
2018-06-14T03:41:09.019Z,14.03
2018-06-14T03:42:16.003Z,14.02
2018-06-14T03:43:23.058Z,14.01
2018-06-14T03:44:30.136Z,14.02
2018-06-14T03:45:37.134Z,14.01
2018-06-14T03:46:44.130Z,14.00
2018-06-14T03:47:51.030Z,13.99
2018-06-14T03:48:58.092Z,13.97
2018-06-14T03:50:05.058Z,13.96
2018-06-14T03:51:11.920Z,13.95
2018-06-14T03:52:19.135Z,13.93
2018-06-14T03:53:25.579Z,13.93
2018-06-14T03:54:32.499Z,13.92
2018-06-14T03:55:39.811Z,13.91
2018-06-14T03:56:46.306Z,13.89
2018-06-14T03:57:53.276Z,13.89
2018-06-14T03:59:00.121Z,13.88
2018-06-14T04:00:07.135Z,13.87
2018-06-14T04:01:14.015Z,13.86
2018-06-14T04:02:20.930Z,13.86
2018-06-14T04:03:27.971Z,13.85
2018-06-14T04:04:34.821Z,13.83
2018-06-14T04:05:41.767Z,13.84
2018-06-14T04:06:48.812Z,13.82
2018-06-14T04:07:55.888Z,13.80
2018-06-14T04:09:02.989Z,13.79
2018-06-14T04:10:09.800Z,13.78
2018-06-14T04:11:16.779Z,13.78
2018-06-14T04:12:23.647Z,13.78
2018-06-14T04:13:30.657Z,13.76
2018-06-14T04:14:37.804Z,13.76
2018-06-14T04:15:44.769Z,13.74
2018-06-14T04:16:51.847Z,13.73
2018-06-14T04:17:58.936Z,13.74
2018-06-14T04:19:05.485Z,13.72
2018-06-14T04:20:12.523Z,13.72
2018-06-14T04:21:19.362Z,13.70
2018-06-14T04:22:26.404Z,13.70
2018-06-14T04:23:33.367Z,13.69
2018-06-14T04:24:40.662Z,13.69
2018-06-14T04:25:47.175Z,13.68
2018-06-14T04:26:54.143Z,13.67
2018-06-14T04:28:01.200Z,13.65
2018-06-14T04:29:08.115Z,13.64
2018-06-14T04:30:15.107Z,13.64
2018-06-14T04:31:22.102Z,13.64
2018-06-14T04:32:29.141Z,13.63
2018-06-14T04:33:36.194Z,13.61
2018-06-14T04:34:43.110Z,13.60
2018-06-14T04:35:50.238Z,13.60
2018-06-14T04:36:57.213Z,13.58
2018-06-14T04:38:04.194Z,13.59
2018-06-14T04:39:11.219Z,13.57
2018-06-14T04:40:18.350Z,13.57
2018-06-14T04:41:24.822Z,13.56
2018-06-14T04:42:31.810Z,13.56
2018-06-14T04:43:38.663Z,13.54
2018-06-14T04:44:45.731Z,13.54
2018-06-14T04:45:52.822Z,13.52
2018-06-14T04:46:59.816Z,13.52
2018-06-14T04:48:06.813Z,13.51
2018-06-14T04:49:13.871Z,13.52
2018-06-14T04:50:20.856Z,13.50
2018-06-14T04:51:27.843Z,13.49
2018-06-14T04:52:34.756Z,13.48
2018-06-14T04:53:41.870Z,13.48
2018-06-14T04:54:48.824Z,13.47
2018-06-14T04:55:55.613Z,13.47
2018-06-14T04:57:02.687Z,13.46
2018-06-14T04:58:09.508Z,13.45
2018-06-14T04:59:16.610Z,13.45
2018-06-14T05:00:23.616Z,13.43
2018-06-14T05:01:30.519Z,13.42
2018-06-14T05:02:37.492Z,13.41
2018-06-14T05:03:44.530Z,13.41
2018-06-14T05:04:51.682Z,13.39
2018-06-14T05:05:58.618Z,13.40
2018-06-14T05:07:05.565Z,13.38
2018-06-14T05:08:12.627Z,13.37
2018-06-14T05:09:19.186Z,13.38
2018-06-14T05:10:26.354Z,13.37
2018-06-14T05:11:33.294Z,13.36
2018-06-14T05:12:40.367Z,13.35
2018-06-14T05:13:47.345Z,13.36
2018-06-14T05:14:54.123Z,13.35
2018-06-14T05:16:00.939Z,13.34
2018-06-14T05:17:07.811Z,13.35
2018-06-14T05:18:14.796Z,13.34
2018-06-14T05:19:21.844Z,13.34
2018-06-14T05:20:28.900Z,13.33
2018-06-14T05:21:35.847Z,13.33
2018-06-14T05:22:42.810Z,13.34
2018-06-14T05:23:49.819Z,13.33
2018-06-14T05:24:56.881Z,13.31
2018-06-14T05:26:03.879Z,13.32
2018-06-14T05:27:10.913Z,13.32
2018-06-14T05:28:17.891Z,13.31
2018-06-14T05:29:24.874Z,13.32
2018-06-14T05:30:31.984Z,13.32
2018-06-14T05:31:38.950Z,13.30
2018-06-14T05:32:45.887Z,13.29
2018-06-14T05:33:52.916Z,13.29
2018-06-14T05:35:00.102Z,13.28
2018-06-14T05:36:06.694Z,13.29
2018-06-14T05:37:13.761Z,13.27
2018-06-14T05:38:20.778Z,13.27
2018-06-14T05:39:27.624Z,13.27
2018-06-14T05:40:34.675Z,13.27
2018-06-14T05:41:41.587Z,13.26
2018-06-14T05:42:48.619Z,13.25
2018-06-14T05:43:55.545Z,13.23
2018-06-14T05:45:02.507Z,13.26
2018-06-14T05:46:09.490Z,13.24
2018-06-14T05:47:16.348Z,13.25
2018-06-14T05:48:23.385Z,13.23
2018-06-14T05:49:30.475Z,13.23
2018-06-14T05:50:37.389Z,13.23
2018-06-14T05:51:44.385Z,13.23
2018-06-14T05:52:51.392Z,13.22
2018-06-14T05:53:58.214Z,13.22
2018-06-14T05:55:05.286Z,13.23
2018-06-14T05:56:12.222Z,13.23
2018-06-14T05:57:19.063Z,13.21
2018-06-14T05:58:26.001Z,13.22
2018-06-14T05:59:33.093Z,13.20
2018-06-14T06:00:39.772Z,13.19
2018-06-14T06:01:46.604Z,13.20
2018-06-14T06:02:53.373Z,13.20
2018-06-14T06:03:59.863Z,13.21
2018-06-14T06:05:07.141Z,13.21
2018-06-14T06:06:13.811Z,13.20
2018-06-14T06:07:20.786Z,13.20
2018-06-14T06:08:27.821Z,13.19
2018-06-14T06:09:34.886Z,13.19
2018-06-14T06:10:42.178Z,13.19
2018-06-14T06:11:48.851Z,13.18
2018-06-14T06:12:56.029Z,13.18
2018-06-14T06:14:02.573Z,13.17
2018-06-14T06:15:09.569Z,13.19
2018-06-14T06:16:16.718Z,13.19
2018-06-14T06:17:23.855Z,13.18
2018-06-14T06:18:30.825Z,13.17
2018-06-14T06:19:37.571Z,13.18
2018-06-14T06:20:44.191Z,13.19
2018-06-14T06:21:51.036Z,13.20
2018-06-14T06:22:58.056Z,13.19
2018-06-14T06:24:05.025Z,13.18
2018-06-14T06:25:12.139Z,13.17
2018-06-14T06:26:19.142Z,13.17
2018-06-14T06:27:26.035Z,13.17
2018-06-14T06:28:33.059Z,13.17
2018-06-14T06:29:40.737Z,13.16
2018-06-14T06:30:50.456Z,13.17
2018-06-14T06:31:53.771Z,13.17
2018-06-14T06:33:01.035Z,13.16
2018-06-14T06:34:08.077Z,13.16
2018-06-14T06:35:15.269Z,13.17
2018-06-14T06:36:22.285Z,13.16
2018-06-14T06:37:35.109Z,13.16
2018-06-14T06:38:36.492Z,13.16
2018-06-14T06:39:43.287Z,13.16
2018-06-14T06:40:50.984Z,13.17
2018-06-14T06:41:57.123Z,13.15
2018-06-14T06:43:05.186Z,13.17
2018-06-14T06:44:11.165Z,13.16
2018-06-14T06:45:18.178Z,13.16
2018-06-14T06:46:24.910Z,13.17
2018-06-14T06:47:31.939Z,13.16
2018-06-14T06:48:55.267Z,13.17
2018-06-14T06:50:01.807Z,13.16
2018-06-14T06:51:08.650Z,13.16
2018-06-14T06:52:15.873Z,13.15
2018-06-14T06:53:22.895Z,13.15
2018-06-14T06:54:30.696Z,13.17
2018-06-14T06:55:37.191Z,13.16
2018-06-14T06:56:45.752Z,13.15
2018-06-14T06:57:51.258Z,13.17
2018-06-14T06:58:59.508Z,13.18
2018-06-14T07:00:05.095Z,13.16
2018-06-14T07:01:13.077Z,13.17
2018-06-14T07:02:18.576Z,13.18
2018-06-14T07:03:25.306Z,13.18
2018-06-14T07:04:32.506Z,13.16
2018-06-14T07:05:39.629Z,13.17
2018-06-14T07:06:46.443Z,13.19
2018-06-14T07:07:53.450Z,13.19
2018-06-14T07:09:00.478Z,13.18
2018-06-14T07:10:07.573Z,13.19
2018-06-14T07:11:14.788Z,13.19
2018-06-14T07:12:21.900Z,13.19
2018-06-14T07:13:28.590Z,13.20
2018-06-14T07:14:35.250Z,13.19
2018-06-14T07:15:42.530Z,13.20
2018-06-14T07:16:49.334Z,13.21
2018-06-14T07:17:55.973Z,13.22
2018-06-14T07:19:02.922Z,13.22
2018-06-14T07:20:09.962Z,13.22
2018-06-14T07:21:16.637Z,13.23
2018-06-14T07:22:23.610Z,13.24
2018-06-14T07:23:30.689Z,13.25
2018-06-14T07:24:37.840Z,13.26
2018-06-14T07:25:44.340Z,13.26
2018-06-14T07:26:51.351Z,13.26
2018-06-14T07:27:58.341Z,13.27
2018-06-14T07:29:05.608Z,13.30
2018-06-14T07:30:12.527Z,13.30
2018-06-14T07:31:21.354Z,13.30
2018-06-14T07:32:26.126Z,13.31
2018-06-14T07:33:32.855Z,13.31
2018-06-14T07:34:39.563Z,13.34
2018-06-14T07:35:46.565Z,13.35
2018-06-14T07:36:53.538Z,13.34
2018-06-14T07:38:00.759Z,13.35
2018-06-14T07:39:07.360Z,13.37
2018-06-14T07:40:14.673Z,13.37
2018-06-14T07:41:22.699Z,13.38
2018-06-14T07:42:29.760Z,13.38
2018-06-14T07:43:35.003Z,13.40
2018-06-14T07:44:42.106Z,13.41
2018-06-14T07:45:49.162Z,13.43
2018-06-14T07:46:56.110Z,13.45
2018-06-14T07:48:03.361Z,13.45
2018-06-14T07:49:09.840Z,13.47
2018-06-14T07:50:16.423Z,13.47
2018-06-14T07:51:23.714Z,13.48
2018-06-14T07:52:30.623Z,13.49
2018-06-14T07:53:37.627Z,13.51
2018-06-14T07:54:44.688Z,13.52
2018-06-14T07:55:51.679Z,13.53
2018-06-14T07:56:58.603Z,13.54
2018-06-14T07:58:05.570Z,13.55
2018-06-14T07:59:12.718Z,13.56
2018-06-14T08:00:19.547Z,13.58
2018-06-14T08:01:26.495Z,13.59
2018-06-14T08:02:34.691Z,13.60
2018-06-14T08:03:40.452Z,13.61
2018-06-14T08:04:47.472Z,13.62
2018-06-14T08:05:54.307Z,13.63
2018-06-14T08:07:02.347Z,13.66
2018-06-14T08:08:07.967Z,13.66
2018-06-14T08:09:15.173Z,13.68
2018-06-14T08:10:21.828Z,13.68
2018-06-14T08:11:28.933Z,13.70
2018-06-14T08:12:35.985Z,13.71
2018-06-14T08:13:43.279Z,13.74
2018-06-14T08:14:49.943Z,13.75
2018-06-14T08:15:57.259Z,13.76
2018-06-14T08:17:04.065Z,13.76
2018-06-14T08:18:10.888Z,13.79
2018-06-14T08:19:17.830Z,13.80
2018-06-14T08:20:24.837Z,13.82
2018-06-14T08:21:31.828Z,13.82
2018-06-14T08:22:38.558Z,13.84
2018-06-14T08:23:45.600Z,13.86
2018-06-14T08:24:52.742Z,13.89
2018-06-14T08:25:59.119Z,13.90
2018-06-14T08:27:05.878Z,13.92
2018-06-14T08:28:12.793Z,13.93
2018-06-14T08:29:19.786Z,13.94
2018-06-14T08:30:26.722Z,13.95
2018-06-14T08:31:35.871Z,13.97
2018-06-14T08:32:40.528Z,13.99
2018-06-14T08:33:47.429Z,14.00
2018-06-14T08:34:54.282Z,14.03
2018-06-14T08:36:01.512Z,14.06
2018-06-14T08:37:07.893Z,14.05
2018-06-14T08:38:14.687Z,14.08
2018-06-14T08:39:21.494Z,14.11
2018-06-14T08:40:28.478Z,14.11
2018-06-14T08:41:35.354Z,14.14
2018-06-14T08:42:42.388Z,14.15
2018-06-14T08:43:49.334Z,14.17
2018-06-14T08:44:56.119Z,14.19
2018-06-14T08:46:03.061Z,14.21
2018-06-14T08:47:10.023Z,14.22
2018-06-14T08:48:17.100Z,14.22
2018-06-14T08:49:24.112Z,14.24
2018-06-14T08:50:30.926Z,14.27
2018-06-14T08:51:37.722Z,14.29
2018-06-14T08:52:44.601Z,14.31
2018-06-14T08:53:51.638Z,14.32
2018-06-14T08:54:58.342Z,14.35
2018-06-14T08:56:05.282Z,14.36
2018-06-14T08:57:12.064Z,14.38
2018-06-14T08:58:19.028Z,14.40
2018-06-14T08:59:25.987Z,14.42
2018-06-14T09:00:32.794Z,14.45
2018-06-14T09:01:39.633Z,14.46
2018-06-14T09:02:46.541Z,14.48
2018-06-14T09:03:53.618Z,14.52
2018-06-14T09:05:00.117Z,14.51
2018-06-14T09:06:06.941Z,14.54
2018-06-14T09:07:13.841Z,14.54
2018-06-14T09:08:20.665Z,14.58
2018-06-14T09:09:27.420Z,14.58
2018-06-14T09:10:34.137Z,14.60
2018-06-14T09:11:41.022Z,14.62
2018-06-14T09:12:47.842Z,14.65
2018-06-14T09:13:54.846Z,14.67
2018-06-14T09:15:01.677Z,14.69
2018-06-14T09:16:08.660Z,14.70
2018-06-14T09:17:15.543Z,14.71
2018-06-14T09:18:22.667Z,14.73
2018-06-14T09:19:29.552Z,14.74
2018-06-14T09:20:36.595Z,14.78
2018-06-14T09:21:43.390Z,14.80
2018-06-14T09:22:50.122Z,14.82
2018-06-14T09:23:57.125Z,14.85
2018-06-14T09:25:04.127Z,14.86
2018-06-14T09:26:11.237Z,14.88
2018-06-14T09:27:18.079Z,14.91
2018-06-14T09:28:24.930Z,14.92
2018-06-14T09:29:31.771Z,14.93
2018-06-14T09:30:38.501Z,14.95
2018-06-14T09:31:45.349Z,14.99
2018-06-14T09:32:52.257Z,15.01
2018-06-14T09:33:59.460Z,15.02
2018-06-14T09:35:05.717Z,15.05
2018-06-14T09:36:12.977Z,15.06
2018-06-14T09:37:24.796Z,15.11
2018-06-14T09:38:26.828Z,15.12
2018-06-14T09:39:33.613Z,15.14
2018-06-14T09:40:40.446Z,15.17
2018-06-14T09:42:54.386Z,15.20
2018-06-14T09:44:01.388Z,15.22
2018-06-14T09:45:08.362Z,15.25
2018-06-14T09:46:15.166Z,15.27
2018-06-14T09:47:21.922Z,15.29
2018-06-14T09:48:29.079Z,15.32
2018-06-14T09:49:36.054Z,15.34
2018-06-14T09:50:43.145Z,15.36
2018-06-14T09:51:49.629Z,15.38
2018-06-14T09:52:56.575Z,15.39
2018-06-14T09:54:03.502Z,15.41
2018-06-14T09:55:10.458Z,15.44
2018-06-14T09:56:17.541Z,15.48
2018-06-14T09:57:24.337Z,15.49
2018-06-14T09:58:31.215Z,15.50
2018-06-14T09:59:38.132Z,15.52
2018-06-14T10:00:44.918Z,15.54
2018-06-14T10:01:51.856Z,15.56
2018-06-14T10:02:58.739Z,15.58
2018-06-14T10:04:05.830Z,15.59
2018-06-14T10:05:12.367Z,15.61
2018-06-14T10:06:19.167Z,15.63
2018-06-14T10:07:25.992Z,15.66
2018-06-14T10:08:32.975Z,15.67
2018-06-14T10:09:39.848Z,15.68
2018-06-14T10:10:46.956Z,15.70
2018-06-14T10:11:54.018Z,15.72
2018-06-14T10:13:01.013Z,15.74
2018-06-14T10:14:08.043Z,15.76
2018-06-14T10:15:14.734Z,15.78
2018-06-14T10:16:21.693Z,15.81
2018-06-14T10:17:28.359Z,15.81
2018-06-14T10:18:35.443Z,15.84
2018-06-14T10:19:42.407Z,15.86
2018-06-14T10:20:49.366Z,15.88
2018-06-14T10:21:56.355Z,15.90
2018-06-14T10:23:03.436Z,15.91
2018-06-14T10:24:10.361Z,15.93
2018-06-14T10:25:17.320Z,15.95
2018-06-14T10:26:24.779Z,15.96
2018-06-14T10:27:30.991Z,15.97
2018-06-14T10:28:38.053Z,16.00
2018-06-14T10:29:45.024Z,16.02
2018-06-14T10:30:51.861Z,16.05
2018-06-14T10:31:58.749Z,16.07
2018-06-14T10:33:05.603Z,16.09
2018-06-14T10:34:12.974Z,16.11
2018-06-14T10:35:19.679Z,16.12
2018-06-14T10:36:26.433Z,16.16
2018-06-14T10:37:33.303Z,16.17
2018-06-14T10:38:40.210Z,16.18
2018-06-14T10:39:47.049Z,16.19
2018-06-14T10:40:54.490Z,16.21
2018-06-14T10:42:00.952Z,16.24
2018-06-14T10:43:07.976Z,16.27
2018-06-14T10:44:14.902Z,16.28
2018-06-14T10:45:21.638Z,16.30
2018-06-14T10:46:28.510Z,16.32
2018-06-14T10:47:35.485Z,16.35
2018-06-14T10:48:42.453Z,16.36
2018-06-14T10:49:48.956Z,16.37
2018-06-14T10:50:55.690Z,16.41
2018-06-14T10:52:02.652Z,16.43
2018-06-14T10:53:09.699Z,16.43
2018-06-14T10:54:16.534Z,16.46
2018-06-14T10:55:23.515Z,16.47
2018-06-14T10:56:30.386Z,16.50
2018-06-14T10:57:37.127Z,16.51
2018-06-14T10:58:43.963Z,16.54
2018-06-14T10:59:50.775Z,16.56
2018-06-14T11:00:57.822Z,16.57
2018-06-14T11:02:05.043Z,16.59
2018-06-14T11:03:12.199Z,16.60
2018-06-14T11:04:19.295Z,16.63
2018-06-14T11:05:25.968Z,16.65
2018-06-14T11:06:32.921Z,16.67
2018-06-14T11:07:39.685Z,16.68
2018-06-14T11:08:47.822Z,16.68
2018-06-14T11:09:53.189Z,16.71
2018-06-14T11:11:01.999Z,16.74
2018-06-14T11:12:06.953Z,16.75
2018-06-14T11:13:14.058Z,16.77
2018-06-14T11:14:21.091Z,16.79
2018-06-14T11:15:28.082Z,16.81
2018-06-14T11:16:35.044Z,16.82
2018-06-14T11:17:42.035Z,16.85
2018-06-14T11:18:49.001Z,16.87
2018-06-14T11:19:55.792Z,16.88
2018-06-14T11:21:02.564Z,16.91
2018-06-14T11:22:09.392Z,16.92
2018-06-14T11:23:16.531Z,16.93
2018-06-14T11:24:23.086Z,16.95
2018-06-14T11:25:30.142Z,16.97
2018-06-14T11:26:36.944Z,16.96
2018-06-14T11:27:43.689Z,16.99
2018-06-14T11:28:50.587Z,17.02
2018-06-14T11:29:57.675Z,17.04
2018-06-14T11:31:04.722Z,17.04
2018-06-14T11:32:11.591Z,17.06
2018-06-14T11:33:18.438Z,17.07
2018-06-14T11:34:25.270Z,17.10
2018-06-14T11:35:32.012Z,17.11
2018-06-14T11:36:38.930Z,17.13
2018-06-14T11:37:45.802Z,17.14
2018-06-14T11:38:52.838Z,17.15
2018-06-14T11:39:59.653Z,17.15
2018-06-14T11:41:06.650Z,17.17
2018-06-14T11:42:13.522Z,17.21
2018-06-14T11:43:20.355Z,17.21
2018-06-14T11:44:27.453Z,17.24
2018-06-14T11:45:34.101Z,17.25
2018-06-14T11:46:40.810Z,17.25
2018-06-14T11:47:48.066Z,17.27
2018-06-14T11:48:54.682Z,17.29
2018-06-14T11:50:01.640Z,17.30
2018-06-14T11:51:08.738Z,17.31
2018-06-14T11:52:15.817Z,17.33
2018-06-14T11:53:22.645Z,17.35
2018-06-14T11:54:29.902Z,17.36
2018-06-14T11:55:36.318Z,17.37
2018-06-14T11:56:43.156Z,17.40
2018-06-14T11:57:50.187Z,17.41
2018-06-14T11:58:57.094Z,17.42
2018-06-14T12:00:03.822Z,17.42
2018-06-14T12:01:10.793Z,17.45
2018-06-14T12:02:17.727Z,17.46
2018-06-14T12:03:25.654Z,17.48
2018-06-14T12:04:31.137Z,17.50
2018-06-14T12:05:38.226Z,17.52
2018-06-14T12:06:45.264Z,17.53
2018-06-14T12:07:52.066Z,17.55
2018-06-14T12:08:58.883Z,17.56
2018-06-14T12:10:05.792Z,17.58
2018-06-14T12:11:12.554Z,17.60
2018-06-14T12:12:19.434Z,17.61
2018-06-14T12:13:26.422Z,17.62
2018-06-14T12:14:33.213Z,17.65
2018-06-14T12:15:40.206Z,17.66
2018-06-14T12:16:47.130Z,17.66
2018-06-14T12:17:54.018Z,17.69
2018-06-14T12:19:00.807Z,17.70
2018-06-14T12:20:07.825Z,17.71
2018-06-14T12:21:14.641Z,17.73
2018-06-14T12:22:21.431Z,17.74
2018-06-14T12:23:28.379Z,17.76
2018-06-14T12:24:35.351Z,17.78
2018-06-14T12:25:42.365Z,17.80
2018-06-14T12:26:49.322Z,17.80
2018-06-14T12:27:56.414Z,17.81
2018-06-14T12:29:03.390Z,17.84
2018-06-14T12:30:10.229Z,17.86
2018-06-14T12:31:17.241Z,17.87
2018-06-14T12:32:23.948Z,17.88
2018-06-14T12:33:30.806Z,17.89
2018-06-14T12:34:37.646Z,17.90
2018-06-14T12:35:44.398Z,17.93
2018-06-14T12:36:51.462Z,17.93
2018-06-14T12:37:58.394Z,17.95
2018-06-14T12:39:05.299Z,17.96
2018-06-14T12:40:13.569Z,17.98
2018-06-14T12:41:18.992Z,17.99
2018-06-14T12:42:26.097Z,17.99
2018-06-14T12:43:33.038Z,18.01
2018-06-14T12:44:39.922Z,18.04
2018-06-14T12:45:46.763Z,18.06
2018-06-14T12:46:53.548Z,18.07
2018-06-14T12:48:00.384Z,18.08
2018-06-14T12:49:07.274Z,18.09
2018-06-14T12:50:13.954Z,18.11
2018-06-14T12:51:20.992Z,18.12
2018-06-14T12:52:27.623Z,18.13
2018-06-14T12:53:34.655Z,18.15
2018-06-14T12:54:41.342Z,18.16
2018-06-14T12:55:48.208Z,18.18
2018-06-14T12:56:55.170Z,18.18
2018-06-14T12:58:02.074Z,18.21
2018-06-14T12:59:09.010Z,18.21
2018-06-14T13:00:16.329Z,18.23
2018-06-14T13:01:22.870Z,18.25
2018-06-14T13:02:29.737Z,18.25
2018-06-14T13:03:36.867Z,18.26
2018-06-14T13:04:43.541Z,18.28
2018-06-14T13:05:50.447Z,18.30
2018-06-14T13:06:57.280Z,18.31
2018-06-14T13:08:04.142Z,18.31
2018-06-14T13:09:11.298Z,18.33
2018-06-14T13:10:17.822Z,18.35
2018-06-14T13:11:24.853Z,18.36
2018-06-14T13:12:31.835Z,18.37
2018-06-14T13:13:38.730Z,18.39
2018-06-14T13:14:45.637Z,18.40
2018-06-14T13:15:52.549Z,18.41
2018-06-14T13:16:59.466Z,18.42
2018-06-14T13:18:06.402Z,18.44
2018-06-14T13:19:13.186Z,18.46
2018-06-14T13:20:20.015Z,18.49
2018-06-14T13:21:27.009Z,18.49
2018-06-14T13:22:33.797Z,18.50
2018-06-14T13:23:40.581Z,18.52
2018-06-14T13:24:48.585Z,18.53
2018-06-14T13:25:54.332Z,18.54
2018-06-14T13:27:01.135Z,18.54
2018-06-14T13:28:08.015Z,18.55
2018-06-14T13:29:15.024Z,18.57
2018-06-14T13:30:21.718Z,18.56
2018-06-14T13:31:28.462Z,18.60
2018-06-14T13:32:35.377Z,18.59
2018-06-14T13:33:42.167Z,18.60
2018-06-14T13:34:48.909Z,18.62
2018-06-14T13:35:55.811Z,18.64
2018-06-14T13:37:02.766Z,18.65
2018-06-14T13:38:09.543Z,18.67
2018-06-14T13:39:16.327Z,18.68
2018-06-14T13:40:23.101Z,18.70
2018-06-14T13:41:30.167Z,18.70
2018-06-14T13:42:37.106Z,18.72
2018-06-14T13:43:44.001Z,18.75
2018-06-14T13:44:51.104Z,18.74
2018-06-14T13:45:57.991Z,18.76
2018-06-14T13:47:04.719Z,18.77
2018-06-14T13:48:12.039Z,18.80
2018-06-14T13:49:18.441Z,18.79
2018-06-14T13:50:25.191Z,18.80
2018-06-14T13:51:32.011Z,18.82
2018-06-14T13:52:39.050Z,18.84
2018-06-14T13:53:45.822Z,18.86
2018-06-14T13:54:52.680Z,18.88
2018-06-14T13:55:59.534Z,18.88
2018-06-14T13:57:06.506Z,18.89
2018-06-14T13:58:13.310Z,18.90
2018-06-14T13:59:20.063Z,18.92
2018-06-14T14:00:26.743Z,18.93
2018-06-14T14:01:33.710Z,18.94
2018-06-14T14:02:40.755Z,18.95
2018-06-14T14:03:47.927Z,18.96
2018-06-14T14:04:54.830Z,18.98
2018-06-14T14:06:02.956Z,18.99
2018-06-14T14:07:08.531Z,19.00
2018-06-14T14:08:15.327Z,19.01
2018-06-14T14:09:22.134Z,19.03
2018-06-14T14:10:28.995Z,19.04
2018-06-14T14:11:36.050Z,19.06
2018-06-14T14:12:43.582Z,19.08
2018-06-14T14:13:50.991Z,19.09
2018-06-14T14:14:57.018Z,19.11
2018-06-14T14:16:03.893Z,19.11
2018-06-14T14:17:10.963Z,19.13
2018-06-14T14:18:17.926Z,19.14
2018-06-14T14:19:25.012Z,19.15
2018-06-14T14:20:31.671Z,19.17
2018-06-14T14:21:40.514Z,19.19
2018-06-14T14:22:45.501Z,19.19